Time;durP1;ratioP1;P1;durP2;ratioP2;P2;SDS_P1;SDS_P2;PMS_P1;PMS_P2;Temp;Humidity;BMP_temperature;BMP_pressure;BME280_temperature;BME280_humidity;BME280_pressure;Samples;Min_cycle;Max_cycle;Signal;HPM_P1;HPM_P2
2023/11/09 00:01:04;;;;;;;1.40;1.30;;;;;;;;;;5023832;28;20224;-63
2023/11/09 00:03:36;;;;;;;2.80;1.07;;;;;;;;;;5025354;28;20283;-63
2023/11/09 00:06:04;;;;;;;1.60;1.00;;;;;;;;;;5033223;28;20734;-63
2023/11/09 00:08:33;;;;;;;3.43;1.27;;;;;;;;;;5022272;28;20211;-63
2023/11/09 00:11:02;;;;;;;3.43;1.00;;;;;;;;;;5018361;28;20296;-63
2023/11/09 00:13:30;;;;;;;3.97;1.30;;;;;;;;;;5019322;28;20228;-63
2023/11/09 00:16:00;;;;;;;1.43;1.30;;;;;;;;;;5023792;28;20216;-63
2023/11/09 00:18:30;;;;;;;2.87;1.10;;;;;;;;;;5018085;28;20255;-64
2023/11/09 00:20:59;;;;;;;2.17;1.07;;;;;;;;;;5018279;28;20210;-63
2023/11/09 00:23:27;;;;;;;3.80;1.40;;;;;;;;;;5033587;28;20290;-64
2023/11/09 00:25:55;;;;;;;0.90;0.90;;;;;;;;;;5026183;28;20211;-63
2023/11/09 00:28:24;;;;;;;1.23;0.93;;;;;;;;;;5030651;28;20210;-63
2023/11/09 00:30:52;;;;;;;2.33;1.40;;;;;;;;;;5020459;28;20224;-63
2023/11/09 00:33:22;;;;;;;2.30;1.17;;;;;;;;;;5017835;28;20618;-63
2023/11/09 00:35:50;;;;;;;1.20;1.10;;;;;;;;;;5033221;28;20582;-63
2023/11/09 00:38:19;;;;;;;1.60;0.90;;;;;;;;;;5035543;28;20230;-63
2023/11/09 00:40:48;;;;;;;2.37;1.30;;;;;;;;;;5027301;28;20274;-63
2023/11/09 00:43:16;;;;;;;2.43;1.37;;;;;;;;;;5030355;28;20291;-63
2023/11/09 00:45:44;;;;;;;3.93;1.20;;;;;;;;;;5025449;28;20200;-62
2023/11/09 00:48:14;;;;;;;1.37;1.27;;;;;;;;;;5037621;28;20207;-63
2023/11/09 00:50:43;;;;;;;2.13;1.53;;;;;;;;;;5036544;28;20278;-63
2023/11/09 00:53:12;;;;;;;3.67;1.20;;;;;;;;;;5037744;28;20203;-64
2023/11/09 00:55:40;;;;;;;1.67;1.00;;;;;;;;;;5020943;28;20208;-63
2023/11/09 00:58:08;;;;;;;2.30;0.97;;;;;;;;;;5020475;28;20200;-63
2023/11/09 01:00:37;;;;;;;1.90;1.00;;;;;;;;;;5020308;28;20198;-63
2023/11/09 01:03:06;;;;;;;0.90;0.70;;;;;;;;;;5017689;28;20266;-63
2023/11/09 01:05:34;;;;;;;0.80;0.80;;;;;;;;;;5030700;28;20543;-63
2023/11/09 01:08:04;;;;;;;2.40;1.07;;;;;;;;;;5027537;28;20204;-63
2023/11/09 01:10:32;;;;;;;3.20;1.27;;;;;;;;;;5029681;28;20233;-63
2023/11/09 01:13:01;;;;;;;0.67;0.67;;;;;;;;;;5020742;28;20259;-62
2023/11/09 01:15:29;;;;;;;1.17;0.70;;;;;;;;;;5021074;28;20224;-64
2023/11/09 01:18:02;;;;;;;2.67;1.10;;;;;;;;;;5017424;28;20208;-63
2023/11/09 01:20:32;;;;;;;1.00;0.90;;;;;;;;;;5030291;28;20562;-63
2023/11/09 01:23:00;;;;;;;0.87;0.87;;;;;;;;;;5036074;28;20233;-63
2023/11/09 01:25:31;;;;;;;0.70;0.70;;;;;;;;;;5036158;28;20244;-63
2023/11/09 01:28:01;;;;;;;3.40;0.90;;;;;;;;;;5037184;28;20215;-63
2023/11/09 01:30:30;;;;;;;0.80;0.80;;;;;;;;;;5033661;28;20216;-63
2023/11/09 01:32:58;;;;;;;1.00;0.80;;;;;;;;;;5036874;28;20270;-63
2023/11/09 01:35:27;;;;;;;1.97;0.90;;;;;;;;;;5035909;28;20544;-61
2023/11/09 01:37:55;;;;;;;4.33;1.17;;;;;;;;;;5036280;28;20286;-62
2023/11/09 01:40:24;;;;;;;1.17;1.00;;;;;;;;;;5036010;28;20227;-62
2023/11/09 01:42:54;;;;;;;0.93;0.90;;;;;;;;;;5017240;28;20590;-62
2023/11/09 01:45:23;;;;;;;2.23;1.00;;;;;;;;;;5035056;28;20640;-63
2023/11/09 01:47:53;;;;;;;1.77;1.40;;;;;;;;;;5035320;28;20617;-61
2023/11/09 01:50:21;;;;;;;1.43;1.33;;;;;;;;;;5032272;28;20227;-62
2023/11/09 01:52:50;;;;;;;3.20;1.70;;;;;;;;;;5040424;28;20259;-62
2023/11/09 01:55:18;;;;;;;1.50;1.40;;;;;;;;;;5028230;28;20200;-62
2023/11/09 01:57:48;;;;;;;3.00;1.17;;;;;;;;;;5021715;28;20205;-62
2023/11/09 02:00:18;;;;;;;2.40;1.00;;;;;;;;;;5023747;28;20231;-62
2023/11/09 02:02:48;;;;;;;2.57;1.00;;;;;;;;;;5025144;28;20291;-62
2023/11/09 02:05:17;;;;;;;1.50;0.80;;;;;;;;;;5025731;28;20266;-62
2023/11/09 02:07:45;;;;;;;2.20;0.80;;;;;;;;;;5015572;28;20231;-62
2023/11/09 02:10:14;;;;;;;2.17;1.13;;;;;;;;;;5020467;28;20241;-62
2023/11/09 02:12:42;;;;;;;0.50;0.50;;;;;;;;;;5020138;28;20669;-62
2023/11/09 02:15:11;;;;;;;2.70;0.73;;;;;;;;;;5021735;28;20635;-62
2023/11/09 02:17:41;;;;;;;0.80;0.80;;;;;;;;;;5020213;28;20216;-62
2023/11/09 02:20:12;;;;;;;3.10;0.80;;;;;;;;;;5020480;28;20204;-63
2023/11/09 02:22:42;;;;;;;2.83;0.50;;;;;;;;;;5038098;28;20227;-62
2023/11/09 02:25:12;;;;;;;0.90;0.70;;;;;;;;;;5039857;28;20554;-62
2023/11/09 02:27:40;;;;;;;1.37;0.70;;;;;;;;;;5031524;28;20199;-62
2023/11/09 02:30:09;;;;;;;2.20;0.70;;;;;;;;;;5019248;28;20208;-62
2023/11/09 02:32:37;;;;;;;1.30;1.00;;;;;;;;;;5020030;28;20228;-63
2023/11/09 02:35:06;;;;;;;1.77;0.80;;;;;;;;;;5022650;28;20611;-62
2023/11/09 02:37:34;;;;;;;1.00;0.80;;;;;;;;;;5020393;28;20200;-62
2023/11/09 02:40:04;;;;;;;1.50;0.70;;;;;;;;;;5028543;28;20271;-62
2023/11/09 02:42:33;;;;;;;1.80;0.83;;;;;;;;;;5036556;28;20262;-63
2023/11/09 02:45:02;;;;;;;1.07;0.80;;;;;;;;;;5029829;28;20210;-62
2023/11/09 02:47:30;;;;;;;1.80;0.70;;;;;;;;;;5039627;28;20216;-62
2023/11/09 02:49:58;;;;;;;0.70;0.70;;;;;;;;;;5038409;28;20625;-62
2023/11/09 02:52:26;;;;;;;3.77;0.90;;;;;;;;;;5039602;28;20318;-62
2023/11/09 02:54:59;;;;;;;3.97;0.90;;;;;;;;;;5038723;28;20253;-62
2023/11/09 02:57:29;;;;;;;1.47;0.90;;;;;;;;;;5038985;28;20210;-62
2023/11/09 03:00:00;;;;;;;0.73;0.73;;;;;;;;;;5022185;28;20204;-62
2023/11/09 03:02:28;;;;;;;0.67;0.60;;;;;;;;;;5022861;28;20255;-62
2023/11/09 03:04:56;;;;;;;1.30;0.80;;;;;;;;;;5021656;28;20262;-62
2023/11/09 03:07:25;;;;;;;1.10;1.00;;;;;;;;;;5039386;28;20224;-62
2023/11/09 03:09:54;;;;;;;2.77;0.90;;;;;;;;;;5021037;28;20291;-62
2023/11/09 03:12:22;;;;;;;0.50;0.50;;;;;;;;;;5037781;28;20227;-62
2023/11/09 03:14:51;;;;;;;1.57;0.90;;;;;;;;;;5032458;28;20718;-62
2023/11/09 03:17:22;;;;;;;0.93;0.90;;;;;;;;;;5038995;28;20286;-62
2023/11/09 03:19:50;;;;;;;1.93;0.70;;;;;;;;;;5032927;28;20200;-62
2023/11/09 03:22:19;;;;;;;1.97;0.93;;;;;;;;;;5026005;28;20705;-62
2023/11/09 03:24:48;;;;;;;0.60;0.60;;;;;;;;;;5034360;28;20210;-62
2023/11/09 03:27:16;;;;;;;1.23;0.97;;;;;;;;;;5020195;28;20210;-62
2023/11/09 03:29:44;;;;;;;2.47;0.90;;;;;;;;;;5036222;28;20565;-62
2023/11/09 03:32:12;;;;;;;2.63;0.97;;;;;;;;;;5038811;28;20237;-62
2023/11/09 03:34:42;;;;;;;1.30;0.80;;;;;;;;;;5037383;28;20671;-62
2023/11/09 03:37:10;;;;;;;1.23;0.73;;;;;;;;;;5037489;28;20239;-62
2023/11/09 03:39:38;;;;;;;4.07;1.03;;;;;;;;;;5027173;28;20274;-62
2023/11/09 03:42:07;;;;;;;2.43;0.90;;;;;;;;;;5026051;28;20699;-62
2023/11/09 03:44:35;;;;;;;1.03;0.70;;;;;;;;;;5033291;28;20262;-63
2023/11/09 03:47:04;;;;;;;3.27;1.13;;;;;;;;;;5018031;28;20231;-62
2023/11/09 03:49:32;;;;;;;0.60;0.60;;;;;;;;;;5018137;28;20292;-62
2023/11/09 03:52:02;;;;;;;0.93;0.70;;;;;;;;;;5018430;28;20700;-62
2023/11/09 03:54:30;;;;;;;1.47;0.90;;;;;;;;;;5017973;28;20255;-63
2023/11/09 03:56:58;;;;;;;1.07;0.77;;;;;;;;;;5017922;28;20291;-62
2023/11/09 03:59:27;;;;;;;2.57;0.97;;;;;;;;;;5018105;28;20204;-62
2023/11/09 04:01:55;;;;;;;4.23;1.27;;;;;;;;;;5026288;28;20310;-63
2023/11/09 04:04:23;;;;;;;2.10;0.90;;;;;;;;;;5019611;28;20587;-62
2023/11/09 04:06:52;;;;;;;1.00;0.87;;;;;;;;;;5020588;28;20204;-63
2023/11/09 04:09:22;;;;;;;1.87;0.90;;;;;;;;;;5021231;28;20197;-63
2023/11/09 04:11:50;;;;;;;1.90;1.13;;;;;;;;;;5017914;28;20225;-63
2023/11/09 04:14:18;;;;;;;2.00;0.80;;;;;;;;;;5018357;28;20232;-63
2023/11/09 04:16:47;;;;;;;1.00;0.90;;;;;;;;;;5026473;28;20719;-63
2023/11/09 04:19:19;;;;;;;1.63;1.07;;;;;;;;;;5018252;28;20287;-63
2023/11/09 04:21:49;;;;;;;1.07;0.97;;;;;;;;;;5036505;28;20274;-63
2023/11/09 04:24:17;;;;;;;0.70;0.70;;;;;;;;;;5037780;28;20207;-63
2023/11/09 04:26:47;;;;;;;2.27;0.97;;;;;;;;;;5026391;28;20248;-63
2023/11/09 04:29:15;;;;;;;0.70;0.70;;;;;;;;;;5036735;28;20287;-62
2023/11/09 04:31:47;;;;;;;0.73;0.73;;;;;;;;;;5037602;28;20729;-63
2023/11/09 04:34:15;;;;;;;2.70;1.00;;;;;;;;;;5036616;28;20273;-63
2023/11/09 04:36:44;;;;;;;1.33;0.80;;;;;;;;;;5015002;28;20316;-63
2023/11/09 04:39:27;;;;;;;0.87;0.87;;;;;;;;;;5017633;28;20204;-63
2023/11/09 04:41:58;;;;;;;1.97;0.90;;;;;;;;;;5021356;28;20220;-63
2023/11/09 04:44:26;;;;;;;1.70;0.90;;;;;;;;;;5021099;28;20253;-63
2023/11/09 04:46:57;;;;;;;3.07;0.90;;;;;;;;;;5029492;28;20235;-63
2023/11/09 04:49:27;;;;;;;2.10;1.30;;;;;;;;;;5036156;28;20282;-62
2023/11/09 04:52:02;;;;;;;1.90;0.90;;;;;;;;;;5037138;28;20235;-63
2023/11/09 04:54:44;;;;;;;1.80;0.80;;;;;;;;;;5036689;28;20655;-62
2023/11/09 05:08:18;;;;;;;2.17;0.70;;;;;;;;;;5034032;28;20208;-62
2023/11/09 05:10:46;;;;;;;2.87;0.80;;;;;;;;;;5023567;28;20207;-63
2023/11/09 05:13:16;;;;;;;0.60;0.60;;;;;;;;;;5036235;28;20257;-63
2023/11/09 05:16:13;;;;;;;1.37;0.60;;;;;;;;;;5026851;28;20208;-63
2023/11/09 05:18:47;;;;;;;1.57;0.70;;;;;;;;;;5020909;28;20216;-63
2023/11/09 05:21:19;;;;;;;3.50;0.80;;;;;;;;;;5027671;28;20301;-63
2023/11/09 05:23:47;;;;;;;1.30;0.83;;;;;;;;;;5031443;28;20666;-63
2023/11/09 05:26:16;;;;;;;2.80;0.70;;;;;;;;;;5020307;28;20232;-63
2023/11/09 05:28:54;;;;;;;2.97;0.80;;;;;;;;;;5020641;28;20563;-63
2023/11/09 05:31:24;;;;;;;2.50;0.80;;;;;;;;;;5024489;28;20258;-63
2023/11/09 05:33:54;;;;;;;2.13;0.70;;;;;;;;;;5028400;28;20268;-63
2023/11/09 05:36:25;;;;;;;1.00;0.90;;;;;;;;;;5030975;28;20236;-63
2023/11/09 05:38:55;;;;;;;0.73;0.70;;;;;;;;;;5020507;28;20755;-63
2023/11/09 05:41:25;;;;;;;1.00;0.70;;;;;;;;;;5027541;28;20302;-63
2023/11/09 05:43:55;;;;;;;2.33;0.60;;;;;;;;;;5021354;28;20243;-63
2023/11/09 05:46:24;;;;;;;1.33;0.60;;;;;;;;;;5027622;28;20227;-63
2023/11/09 05:48:52;;;;;;;1.03;0.83;;;;;;;;;;5018949;28;20208;-63
2023/11/09 05:51:23;;;;;;;2.63;0.70;;;;;;;;;;5020310;28;20223;-63
2023/11/09 05:53:53;;;;;;;1.30;0.90;;;;;;;;;;5030132;28;20259;-63
2023/11/09 05:56:24;;;;;;;3.50;0.77;;;;;;;;;;5029978;28;20644;-63
2023/11/09 05:58:53;;;;;;;1.50;0.73;;;;;;;;;;5039162;28;20269;-63
2023/11/09 06:01:24;;;;;;;0.73;0.60;;;;;;;;;;5027639;28;20663;-63
2023/11/09 06:03:54;;;;;;;0.70;0.60;;;;;;;;;;5028297;28;20201;-63
2023/11/09 06:06:22;;;;;;;0.60;0.60;;;;;;;;;;5031919;28;20286;-63
2023/11/09 06:08:51;;;;;;;1.70;0.80;;;;;;;;;;5030491;28;20295;-63
2023/11/09 06:11:19;;;;;;;0.63;0.60;;;;;;;;;;5019267;28;20782;-63
2023/11/09 06:13:47;;;;;;;2.97;0.67;;;;;;;;;;5033138;28;20228;-63
2023/11/09 06:16:16;;;;;;;1.70;0.70;;;;;;;;;;5025427;28;20283;-63
2023/11/09 06:18:46;;;;;;;0.77;0.73;;;;;;;;;;5020376;28;20204;-63
2023/11/09 06:21:14;;;;;;;2.27;0.90;;;;;;;;;;5020148;28;20314;-63
2023/11/09 06:23:43;;;;;;;1.87;0.60;;;;;;;;;;5019992;28;20574;-63
2023/11/09 06:26:11;;;;;;;0.93;0.77;;;;;;;;;;5019799;28;20235;-65
2023/11/09 06:28:40;;;;;;;4.07;1.80;;;;;;;;;;5019644;28;20272;-65
2023/11/09 06:31:09;;;;;;;0.87;0.77;;;;;;;;;;5019934;28;20286;-64
2023/11/09 06:33:38;;;;;;;1.53;0.67;;;;;;;;;;5022566;28;20684;-65
2023/11/09 06:36:09;;;;;;;0.70;0.70;;;;;;;;;;5024268;28;20244;-65
2023/11/09 06:38:47;;;;;;;0.70;0.70;;;;;;;;;;5029767;28;20207;-65
2023/11/09 06:41:18;;;;;;;3.00;1.07;;;;;;;;;;5024514;28;20586;-65
2023/11/09 06:43:58;;;;;;;0.97;0.77;;;;;;;;;;5026184;28;20208;-65
2023/11/09 06:46:27;;;;;;;2.93;0.80;;;;;;;;;;5019448;28;20265;-64
2023/11/09 06:48:57;;;;;;;2.30;1.10;;;;;;;;;;5019326;28;20267;-65
2023/11/09 06:51:30;;;;;;;0.83;0.83;;;;;;;;;;5034689;28;20270;-63
2023/11/09 06:53:59;;;;;;;0.80;0.80;;;;;;;;;;5026907;28;20228;-65
2023/11/09 06:56:32;;;;;;;1.50;0.70;;;;;;;;;;5019038;28;20208;-66
2023/11/09 06:59:00;;;;;;;1.43;0.70;;;;;;;;;;5019312;28;20269;-65
2023/11/09 07:01:31;;;;;;;1.23;0.77;;;;;;;;;;5018708;28;20220;-65
2023/11/09 07:03:59;;;;;;;2.33;0.80;;;;;;;;;;5026817;28;20200;-65
2023/11/09 07:06:47;;;;;;;3.77;0.70;;;;;;;;;;5027025;28;20200;-65
2023/11/09 07:09:26;;;;;;;0.87;0.57;;;;;;;;;;5033738;28;20599;-66
2023/11/09 07:15:18;;;;;;;2.27;0.97;;;;;;;;;;4981753;28;20208;-63
2023/11/09 07:17:50;;;;;;;1.33;1.00;;;;;;;;;;5013564;28;20204;-63
2023/11/09 07:20:21;;;;;;;3.77;1.43;;;;;;;;;;5018475;28;20207;-64
2023/11/09 07:22:56;;;;;;;1.90;1.03;;;;;;;;;;5018629;28;20228;-66
2023/11/09 07:25:31;;;;;;;5.30;0.83;;;;;;;;;;5018798;28;20295;-63
2023/11/09 07:28:03;;;;;;;3.50;0.90;;;;;;;;;;5021145;28;20204;-64
2023/11/09 07:30:38;;;;;;;2.03;0.90;;;;;;;;;;5018552;28;20208;-64
2023/11/09 07:33:08;;;;;;;3.37;0.77;;;;;;;;;;5018615;28;20228;-66
2023/11/09 07:36:00;;;;;;;4.13;1.23;;;;;;;;;;5018491;28;20239;-64
2023/11/09 07:39:24;;;;;;;1.73;0.87;;;;;;;;;;5012771;28;20215;-64
2023/11/09 07:42:49;;;;;;;3.23;1.10;;;;;;;;;;4975086;28;20280;-64
2023/11/09 07:45:43;;;;;;;3.00;0.80;;;;;;;;;;4986137;28;20234;-64
2023/11/09 07:52:10;;;;;;;1.70;0.90;;;;;;;;;;4901739;29;20244;-64
2023/11/09 07:55:22;;;;;;;;;;;;;;;;;;;;;
2023/11/09 07:58:03;;;;;;;4.70;0.93;;;;;;;;;;5022700;28;20211;-64
2023/11/09 08:00:32;;;;;;;2.43;0.80;;;;;;;;;;5037381;28;20298;-63
2023/11/09 08:03:00;;;;;;;1.03;0.80;;;;;;;;;;5037728;28;20231;-63
2023/11/09 08:05:29;;;;;;;1.00;0.77;;;;;;;;;;5032434;28;20207;-63
2023/11/09 08:07:59;;;;;;;1.57;0.80;;;;;;;;;;5018538;28;20208;-63
2023/11/09 08:10:45;;;;;;;2.50;0.90;;;;;;;;;;5018125;28;20208;-64
2023/11/09 08:13:16;;;;;;;2.40;1.33;;;;;;;;;;5017855;28;20246;-64
2023/11/09 08:15:44;;;;;;;2.07;0.80;;;;;;;;;;5019725;28;20238;-63
2023/11/09 08:18:14;;;;;;;3.40;1.20;;;;;;;;;;5023301;28;20267;-63
2023/11/09 08:20:43;;;;;;;1.10;1.00;;;;;;;;;;5037603;28;20204;-63
2023/11/09 08:23:12;;;;;;;3.50;1.37;;;;;;;;;;5037926;28;20677;-63
2023/11/09 08:25:40;;;;;;;2.43;0.70;;;;;;;;;;5037570;28;20217;-63
2023/11/09 08:28:12;;;;;;;1.87;0.90;;;;;;;;;;5037626;28;20211;-63
2023/11/09 08:30:43;;;;;;;2.43;1.00;;;;;;;;;;5037710;28;20574;-64
2023/11/09 08:33:21;;;;;;;4.30;1.07;;;;;;;;;;5019067;28;20572;-64
2023/11/09 08:36:10;;;;;;;2.87;0.83;;;;;;;;;;5024507;28;20250;-64
2023/11/09 08:42:19;;;;;;;;;;;;;;;;;;;;;
2023/11/09 08:45:03;;;;;;;4.80;1.13;;;;;;;;;;5017443;28;20239;-64
2023/11/09 08:47:40;;;;;;;1.70;1.00;;;;;;;;;;5017518;28;20234;-64
2023/11/09 08:50:25;;;;;;;2.20;1.20;;;;;;;;;;5036002;28;20211;-64
2023/11/09 08:52:55;;;;;;;2.33;1.00;;;;;;;;;;5025487;28;20278;-63
2023/11/09 08:55:24;;;;;;;1.33;1.00;;;;;;;;;;5017713;28;20698;-64
2023/11/09 08:57:52;;;;;;;1.63;1.10;;;;;;;;;;5026392;28;20204;-63
2023/11/09 09:00:23;;;;;;;1.90;1.17;;;;;;;;;;5041274;28;20575;-64
2023/11/09 09:02:54;;;;;;;0.90;0.90;;;;;;;;;;5021775;28;20223;-65
2023/11/09 09:09:25;;;;;;;;;;;;;;;;;;;;;
2023/11/09 09:12:20;;;;;;;1.53;1.03;;;;;;;;;;5024406;28;20230;-65
2023/11/09 09:14:57;;;;;;;1.00;1.00;;;;;;;;;;5036833;28;20567;-65
2023/11/09 09:17:36;;;;;;;1.97;1.20;;;;;;;;;;5023497;28;20212;-65
2023/11/09 09:20:12;;;;;;;2.00;1.20;;;;;;;;;;5029110;28;20207;-65
2023/11/09 09:22:48;;;;;;;2.77;1.33;;;;;;;;;;5022426;28;20679;-64
2023/11/09 09:25:22;;;;;;;1.40;0.83;;;;;;;;;;5017384;28;20255;-65
2023/11/09 09:28:09;;;;;;;1.70;1.13;;;;;;;;;;5017501;28;20212;-64
2023/11/09 09:30:40;;;;;;;1.40;1.10;;;;;;;;;;5020958;28;20261;-65
2023/11/09 09:33:11;;;;;;;2.93;1.50;;;;;;;;;;5020873;28;20210;-65
2023/11/09 09:35:57;;;;;;;1.27;0.93;;;;;;;;;;5020918;28;20239;-65
2023/11/09 09:38:27;;;;;;;2.67;1.20;;;;;;;;;;5020834;28;20239;-66
2023/11/09 09:40:56;;;;;;;1.90;1.00;;;;;;;;;;5034584;28;20302;-64
2023/11/09 09:43:25;;;;;;;1.60;1.20;;;;;;;;;;5026735;28;20262;-66
2023/11/09 09:45:58;;;;;;;1.20;0.80;;;;;;;;;;5020939;28;20655;-64
2023/11/09 09:48:28;;;;;;;0.90;0.90;;;;;;;;;;5020517;28;20745;-65
2023/11/09 09:51:00;;;;;;;1.00;1.00;;;;;;;;;;5020613;28;20681;-64
2023/11/09 09:53:30;;;;;;;2.50;1.10;;;;;;;;;;5021142;28;20208;-65
2023/11/09 09:56:03;;;;;;;0.87;0.77;;;;;;;;;;5021236;28;20229;-66
2023/11/09 09:58:35;;;;;;;2.50;0.90;;;;;;;;;;5031378;28;20203;-66
2023/11/09 10:01:05;;;;;;;1.53;0.80;;;;;;;;;;5027933;28;20262;-66
2023/11/09 10:03:35;;;;;;;2.07;1.20;;;;;;;;;;5033091;28;20674;-67
2023/11/09 10:06:05;;;;;;;3.33;1.30;;;;;;;;;;5040417;28;20211;-67
2023/11/09 10:08:36;;;;;;;1.47;1.17;;;;;;;;;;5039693;28;20207;-67
2023/11/09 10:11:04;;;;;;;1.00;0.90;;;;;;;;;;5033442;28;20291;-67
2023/11/09 10:13:45;;;;;;;1.10;0.90;;;;;;;;;;5025077;28;20203;-67
2023/11/09 10:16:18;;;;;;;1.87;1.00;;;;;;;;;;5026605;28;20722;-67
2023/11/09 10:18:57;;;;;;;1.30;1.00;;;;;;;;;;5031224;28;20207;-66
2023/11/09 10:21:34;;;;;;;1.33;1.23;;;;;;;;;;5033119;28;20230;-67
2023/11/09 10:24:19;;;;;;;1.13;1.13;;;;;;;;;;5039828;28;20203;-66
2023/11/09 10:27:14;;;;;;;1.60;1.17;;;;;;;;;;5030754;28;20207;-66
2023/11/09 10:30:14;;;;;;;1.57;0.90;;;;;;;;;;4998186;28;20219;-66
2023/11/09 10:32:47;;;;;;;4.50;0.87;;;;;;;;;;5039685;28;20231;-67
2023/11/09 10:35:29;;;;;;;0.97;0.97;;;;;;;;;;5022151;28;20224;-66
2023/11/09 10:38:04;;;;;;;1.63;1.17;;;;;;;;;;5020233;28;20279;-66
2023/11/09 10:40:41;;;;;;;3.23;1.50;;;;;;;;;;5019773;28;20246;-66
2023/11/09 10:43:37;;;;;;;1.87;1.47;;;;;;;;;;5019465;28;20208;-67
2023/11/09 10:46:21;;;;;;;1.07;1.00;;;;;;;;;;5019725;28;20235;-66
2023/11/09 10:48:52;;;;;;;1.47;1.13;;;;;;;;;;5020410;28;20630;-65
2023/11/09 10:51:21;;;;;;;1.00;0.97;;;;;;;;;;5030705;28;20574;-65
2023/11/09 10:53:52;;;;;;;1.73;1.10;;;;;;;;;;5019809;28;20231;-65
2023/11/09 10:56:21;;;;;;;0.83;0.83;;;;;;;;;;5019259;28;20713;-65
2023/11/09 10:58:50;;;;;;;1.27;1.00;;;;;;;;;;5020477;28;20204;-66
2023/11/09 11:01:24;;;;;;;1.27;1.10;;;;;;;;;;5019733;28;20220;-67
2023/11/09 11:03:55;;;;;;;1.17;1.00;;;;;;;;;;5027211;28;20203;-65
2023/11/09 11:06:29;;;;;;;1.43;1.23;;;;;;;;;;5038738;28;20211;-69
2023/11/09 11:09:07;;;;;;;3.80;1.30;;;;;;;;;;5026935;28;20290;-67
2023/11/09 11:11:38;;;;;;;1.63;1.27;;;;;;;;;;5018981;28;20296;-68
2023/11/09 11:14:10;;;;;;;2.50;1.20;;;;;;;;;;5019468;28;20208;-70
2023/11/09 11:16:57;;;;;;;3.07;1.17;;;;;;;;;;5022178;28;20227;-67
2023/11/09 11:19:38;;;;;;;1.40;1.33;;;;;;;;;;5017967;28;20256;-67
2023/11/09 11:22:17;;;;;;;4.10;1.50;;;;;;;;;;5024781;28;20238;-67
2023/11/09 11:24:56;;;;;;;1.23;1.13;;;;;;;;;;5013990;28;20212;-67
2023/11/09 11:27:32;;;;;;;2.97;1.53;;;;;;;;;;5032055;28;20210;-66
2023/11/09 11:30:00;;;;;;;3.10;2.00;;;;;;;;;;5016880;28;20204;-64
2023/11/09 11:32:38;;;;;;;1.63;1.53;;;;;;;;;;5024139;28;20310;-68
2023/11/09 11:35:11;;;;;;;3.87;2.13;;;;;;;;;;5022196;28;20227;-68
2023/11/09 11:37:39;;;;;;;5.17;2.10;;;;;;;;;;5020351;28;20228;-69
2023/11/09 11:40:10;;;;;;;3.97;2.20;;;;;;;;;;5018505;28;20216;-63
2023/11/09 11:42:39;;;;;;;2.23;2.00;;;;;;;;;;5024886;28;20235;-67
2023/11/09 11:45:08;;;;;;;4.00;1.40;;;;;;;;;;5038426;28;20291;-66
2023/11/09 11:47:36;;;;;;;1.90;1.47;;;;;;;;;;5037847;28;20245;-65
2023/11/09 11:50:09;;;;;;;3.30;1.90;;;;;;;;;;5026264;28;20287;-67
2023/11/09 11:52:38;;;;;;;1.63;1.40;;;;;;;;;;5018387;28;20260;-64
2023/11/09 11:55:10;;;;;;;2.27;1.20;;;;;;;;;;5018039;28;20238;-67
2023/11/09 11:57:54;;;;;;;1.93;1.50;;;;;;;;;;5018253;28;20247;-64
2023/11/09 12:00:36;;;;;;;0.90;0.90;;;;;;;;;;5017630;28;20243;-67
2023/11/09 12:03:04;;;;;;;1.43;1.30;;;;;;;;;;5017951;28;20223;-64
2023/11/09 12:05:34;;;;;;;2.93;1.40;;;;;;;;;;5018174;28;20219;-68
2023/11/09 12:08:03;;;;;;;2.60;1.43;;;;;;;;;;5017413;28;20705;-64
2023/11/09 12:10:39;;;;;;;2.37;1.30;;;;;;;;;;5017996;28;20212;-65
2023/11/09 12:13:08;;;;;;;1.37;1.27;;;;;;;;;;5017837;28;20227;-65
2023/11/09 12:15:37;;;;;;;3.43;1.83;;;;;;;;;;5017583;28;20227;-64
2023/11/09 12:18:06;;;;;;;1.80;1.43;;;;;;;;;;5018034;28;20291;-64
2023/11/09 12:20:38;;;;;;;2.30;1.50;;;;;;;;;;5018181;28;20235;-64
2023/11/09 12:23:07;;;;;;;3.80;2.63;;;;;;;;;;5017788;28;20312;-68
2023/11/09 12:25:54;;;;;;;2.93;1.53;;;;;;;;;;5017477;28;20204;-70
2023/11/09 12:28:23;;;;;;;3.57;1.40;;;;;;;;;;5017390;28;20208;-67
2023/11/09 12:30:51;;;;;;;1.67;1.40;;;;;;;;;;5017278;28;20208;-68
2023/11/09 12:33:21;;;;;;;3.47;1.47;;;;;;;;;;5024261;28;20217;-67
2023/11/09 12:36:00;;;;;;;1.77;1.00;;;;;;;;;;5037100;28;20724;-67
2023/11/09 12:38:29;;;;;;;3.07;1.30;;;;;;;;;;5028136;28;20200;-67
2023/11/09 12:41:01;;;;;;;2.10;1.63;;;;;;;;;;5015019;28;20263;-64
2023/11/09 12:43:35;;;;;;;1.00;1.00;;;;;;;;;;5020497;28;20283;-66
2023/11/09 12:46:08;;;;;;;2.13;1.30;;;;;;;;;;5017577;28;20254;-65
2023/11/09 12:48:43;;;;;;;1.80;1.60;;;;;;;;;;5017459;28;20219;-68
2023/11/09 12:51:14;;;;;;;1.23;1.10;;;;;;;;;;5030709;28;20329;-69
2023/11/09 12:53:44;;;;;;;1.80;1.50;;;;;;;;;;5029546;28;20678;-68
2023/11/09 12:56:15;;;;;;;4.30;1.60;;;;;;;;;;5017973;28;20314;-69
2023/11/09 12:58:57;;;;;;;1.73;1.60;;;;;;;;;;5017232;28;20596;-67
2023/11/09 13:01:26;;;;;;;2.67;1.53;;;;;;;;;;5020254;28;20231;-65
2023/11/09 13:03:56;;;;;;;3.70;1.43;;;;;;;;;;5017788;28;20204;-65
2023/11/09 13:06:26;;;;;;;2.40;1.30;;;;;;;;;;5017996;28;20227;-66
2023/11/09 13:09:07;;;;;;;1.27;1.13;;;;;;;;;;5018075;28;20216;-67
2023/11/09 13:11:42;;;;;;;1.20;1.10;;;;;;;;;;5017277;28;20231;-68
2023/11/09 13:14:16;;;;;;;1.53;1.37;;;;;;;;;;5017569;28;20290;-68
2023/11/09 13:16:44;;;;;;;1.90;1.20;;;;;;;;;;5019350;28;20236;-68
2023/11/09 13:19:24;;;;;;;1.47;1.10;;;;;;;;;;5017393;28;20212;-68
2023/11/09 13:21:52;;;;;;;1.43;0.90;;;;;;;;;;5017273;28;20302;-67
2023/11/09 13:24:26;;;;;;;2.00;1.00;;;;;;;;;;5021669;28;20283;-68
2023/11/09 13:26:57;;;;;;;7.73;1.30;;;;;;;;;;5018144;28;20204;-67
2023/11/09 13:29:25;;;;;;;1.33;0.90;;;;;;;;;;5017423;28;20204;-69
2023/11/09 13:31:56;;;;;;;2.00;1.27;;;;;;;;;;5017256;28;20761;-68
2023/11/09 13:34:38;;;;;;;1.80;0.90;;;;;;;;;;5024002;28;20207;-68
2023/11/09 13:37:07;;;;;;;1.07;0.77;;;;;;;;;;5026688;28;20688;-68
2023/11/09 13:39:50;;;;;;;1.57;0.80;;;;;;;;;;5017316;28;20638;-69
2023/11/09 13:42:36;;;;;;;0.90;0.80;;;;;;;;;;5029588;28;20588;-69
2023/11/09 13:45:27;;;;;;;1.60;1.00;;;;;;;;;;5033944;28;20231;-68
2023/11/09 13:47:54;;;;;;;1.97;0.93;;;;;;;;;;5031991;28;20231;-68
2023/11/09 13:50:24;;;;;;;1.03;0.80;;;;;;;;;;5020735;28;20243;-68
2023/11/09 13:52:54;;;;;;;0.70;0.70;;;;;;;;;;5020989;28;20311;-68
2023/11/09 13:55:47;;;;;;;2.17;0.90;;;;;;;;;;5020435;28;20219;-69
2023/11/09 13:58:23;;;;;;;1.10;0.80;;;;;;;;;;5025479;28;20301;-68
2023/11/09 14:00:54;;;;;;;1.13;0.60;;;;;;;;;;5037000;28;20215;-68
2023/11/09 14:03:22;;;;;;;1.63;0.93;;;;;;;;;;5021224;28;20678;-69
2023/11/09 14:05:51;;;;;;;1.20;0.70;;;;;;;;;;5032279;28;20651;-68
2023/11/09 14:08:20;;;;;;;3.13;1.30;;;;;;;;;;5020479;28;20212;-68
2023/11/09 14:10:49;;;;;;;2.40;1.20;;;;;;;;;;5020716;28;20212;-68
2023/11/09 14:13:28;;;;;;;3.93;1.63;;;;;;;;;;5020425;28;20240;-68
2023/11/09 14:16:11;;;;;;;33.60;8.07;;;;;;;;;;5020688;28;20207;-69
2023/11/09 14:18:50;;;;;;;2.20;1.20;;;;;;;;;;5020291;28;20631;-69
2023/11/09 14:21:23;;;;;;;2.90;0.83;;;;;;;;;;5020555;28;20227;-68
2023/11/09 14:23:52;;;;;;;0.90;0.90;;;;;;;;;;5020182;28;20214;-68
2023/11/09 14:26:27;;;;;;;2.17;0.87;;;;;;;;;;5019898;28;20218;-67
2023/11/09 14:29:01;;;;;;;1.10;0.93;;;;;;;;;;5020672;28;20257;-69
2023/11/09 14:31:36;;;;;;;0.90;0.53;;;;;;;;;;5020155;28;20242;-68
2023/11/09 14:34:06;;;;;;;0.87;0.87;;;;;;;;;;5020096;28;20594;-68
2023/11/09 14:36:41;;;;;;;0.60;0.60;;;;;;;;;;5019859;28;20663;-68
2023/11/09 14:39:23;;;;;;;0.80;0.80;;;;;;;;;;5019871;28;20666;-68
2023/11/09 14:41:52;;;;;;;0.50;0.50;;;;;;;;;;5020520;28;20262;-69
2023/11/09 14:44:21;;;;;;;0.70;0.70;;;;;;;;;;5020021;28;20212;-70
2023/11/09 14:46:53;;;;;;;2.00;0.80;;;;;;;;;;5024867;28;20267;-70
2023/11/09 14:49:22;;;;;;;0.53;0.53;;;;;;;;;;5026261;28;20200;-68
2023/11/09 14:51:52;;;;;;;0.70;0.70;;;;;;;;;;5019220;28;20230;-70
2023/11/09 14:54:28;;;;;;;1.00;0.70;;;;;;;;;;5031253;28;20685;-68
2023/11/09 14:56:56;;;;;;;0.77;0.57;;;;;;;;;;5034586;28;20246;-70
2023/11/09 14:59:26;;;;;;;0.83;0.63;;;;;;;;;;5023029;28;20196;-69
2023/11/09 15:01:54;;;;;;;1.27;0.60;;;;;;;;;;5022460;28;20266;-69
2023/11/09 15:04:26;;;;;;;0.60;0.60;;;;;;;;;;5019361;28;20706;-70
2023/11/09 15:06:55;;;;;;;0.77;0.67;;;;;;;;;;5025752;28;20204;-70
2023/11/09 15:09:31;;;;;;;0.63;0.63;;;;;;;;;;5019582;28;20211;-69
2023/11/09 15:12:05;;;;;;;0.70;0.70;;;;;;;;;;5019303;28;20238;-69
2023/11/09 15:14:35;;;;;;;1.07;0.60;;;;;;;;;;5018283;28;20211;-70
2023/11/09 15:17:03;;;;;;;0.93;0.93;;;;;;;;;;5018337;28;20307;-69
2023/11/09 15:19:31;;;;;;;0.70;0.70;;;;;;;;;;5019021;28;20218;-68
2023/11/09 15:22:00;;;;;;;1.17;0.83;;;;;;;;;;5018774;28;20227;-70
2023/11/09 15:24:30;;;;;;;0.60;0.60;;;;;;;;;;5018837;28;20291;-70
2023/11/09 15:26:58;;;;;;;0.93;0.93;;;;;;;;;;5018820;28;20215;-67
2023/11/09 15:29:28;;;;;;;2.13;0.80;;;;;;;;;;5018625;28;20208;-68
2023/11/09 15:32:17;;;;;;;1.53;0.80;;;;;;;;;;5019138;28;20296;-69
2023/11/09 15:34:50;;;;;;;0.80;0.80;;;;;;;;;;5035630;28;20243;-68
2023/11/09 15:37:19;;;;;;;1.10;1.00;;;;;;;;;;5037944;28;20703;-67
2023/11/09 15:39:47;;;;;;;0.80;0.80;;;;;;;;;;5035885;28;20622;-68
2023/11/09 15:42:36;;;;;;;1.10;1.00;;;;;;;;;;5028961;28;20224;-67